Terminal Aerodrome Forecast
Issued by NWS Twin Cities, MN

Home | Current Version | Previous Version | Graphics & Text | Print | Product List | Glossary On
Versions: 1 2 3 4 5 6 7 8 9 10 11 12 13 14 15 16 17 18
962
FTUS43 KMPX 232040 AAA
TAFEAU
TAF AMD
KEAU 232040Z 2321/2418 30013G22KT P6SM FEW050 OVC080
     FM232300 30013KT P6SM VCSH SCT050 BKN080
     FM240200 30008KT P6SM BKN100
     FM241600 29012G18KT P6SM BKN100=

USA.gov is the U.S. government's official web portal to all federal, state and local government web resources and services.